Terminal Aerodrome Forecast
Issued by NWS

Home | Current Version | Previous Version | Text Only | Print | Product List | Glossary On
Versions: 1 2 3 4 5 6 7 8 9 10 11 12 13 14 15 16 17 18 19 20 21 22
000
FTUS41 KBOX 252033 AAA
TAFACK
TAF AMD
KACK 252033Z 2521/2618 21012KT P6SM SKC
     FM260600 21012KT P6SM BKN080
     FM261000 22012KT 4SM -SHRA BR BKN040
     FM261600 22013KT P6SM BKN035=

USA.gov is the U.S. government's official web portal to all federal, state and local government web resources and services.